Flight Track Log - Related Links

Times and Time Zones

All times are in EDT time to prevent confusion due to time zone crossing. See the EJA614 flight status page for this flight to view local times or setup timezone preferences in your user account.

Time Position Orientation Groundspeed Altitude Reporting Facility
EDT Latitude Longitude Course Direction KTS MPH feet Rate Location/Type
Fri 03:29:04 PM 44.3786 -68.4806 240° Southwest 238 274 6,400  Level Boston Center
Fri 03:30:04 PM 44.3422 -68.5731 241° Southwest 288 331 9,900 3,273 Climbing Boston Center
Fri 03:31:05 PM 44.2994 -68.6689 238° Southwest 300 345 13,000 2,803 Climbing Boston Center
Fri 03:32:06 PM 44.2569 -68.7700 240° Southwest 300 345 15,600 2,471 Climbing Boston Center
Fri 03:33:04 PM 44.1950 -68.8550 225° Southwest 305 351 17,900 2,118 Climbing Boston Center
Fri 03:34:00 PM 44.1840 -68.9286 240° Southwest  Level FlightAware Approximate
Fri 03:34:05 PM 44.1181 -68.9261 214° Southwest 317 365 19,800  Level Boston Center
Fri 03:35:05 PM 44.0328 -69.0006 212° Southwest 349 402 20,000 99 Climbing Boston Center
Fri 03:36:06 PM 43.9453 -69.0778 212° Southwest 367 422 20,000  Level Boston Center
Fri 03:37:06 PM 43.8600 -69.1544 213° Southwest 372 428 20,000  Level Boston Center
Fri 03:38:06 PM 43.7806 -69.2219 212° Southwest 377 434 20,000  Level Boston Center
Fri 03:39:04 PM 43.7072 -69.2833 211° Southwest 382 440 20,000  Level Boston Center
Fri 03:40:05 PM 43.6036 -69.3747 213° Southwest 382 440 20,000  Level Boston Center
Fri 03:41:17 PM 43.5178 -69.4481 212° Southwest 377 434 20,000  Level Boston Center
Fri 03:42:18 PM 43.4139 -69.5417 213° Southwest 383 441 20,000  Level Boston Center
Fri 03:43:18 PM 43.3181 -69.6233 212° Southwest 375 432 20,000  Level Boston Center
Fri 03:44:16 PM 43.2303 -69.6986 212° Southwest 375 432 20,000  Level Boston Center
Fri 03:45:16 PM 43.1486 -69.7706 213° Southwest 381 438 20,000  Level Boston Center
Fri 03:46:29 PM 43.0544 -69.8486 211° Southwest 376 433 20,000 -45 Level Boston Center
Fri 03:47:30 PM 42.9481 -69.9381 212° Southwest 381 438 19,900 -1,180 Descending Boston Center
Fri 03:48:31 PM 42.8642 -70.0125 213° Southwest 381 438 17,600 -2,136 Descending Boston Center
Fri 03:49:28 PM 42.7844 -70.0806 212° Southwest 369 425 15,700 -2,034 Descending Boston Center
Fri 03:50:29 PM 42.7044 -70.1486 212° Southwest 356 410 13,600 -2,083 Descending Boston Center
Fri 03:51:29 PM 42.6244 -70.2136 211° Southwest 350 403 11,500 -1,835 Descending Boston Center
Fri 03:52:30 PM 42.5994 -70.3161 252° West 289 333 9,900 -1,714 Descending Boston Center
Fri 03:54:10 PM 42.5667 -70.4500 252° West 226 260 6,900 -1,838 Descending KA90
Fri 03:55:10 PM 42.5167 -70.4667 194° South 218 251 5,000 -1,550 Descending KA90
Fri 03:56:10 PM 42.4667 -70.5167 216° Southwest 213 245 3,800 -1,000 Descending KA90
Fri 03:57:10 PM 42.4333 -70.5833 236° Southwest 207 238 3,000 -400 Descending KA90
Fri 03:58:10 PM 42.4167 -70.6500 251° West 217 250 3,000  Level KA90
Fri 03:59:11 PM 42.4000 -70.7167 251° West 180 207 3,000 -129 Level KA90
Fri 04:00:30 PM 42.3950 -70.8067 266° West 182 209 2,700 -432 Descending Boston Center
Fri 04:01:30 PM 42.3853 -70.8603 256° West 170 196 2,000 -832 Descending Boston Center
Fri 04:02:11 PM 42.3833 -70.9000 266° West 169 194 1,300 -884 Descending KA90
Fri 04:03:05 PM 42.3667 -70.9500 246° West 124 143 600 3,854 Descending KA90
Fri 04:04:42 PM 42.3542 -71.0269 258° West 149 171 11,000 4,026 Climbing Boston Center
Fri 04:05:40 PM 42.3442 -71.0778 255° West 149 171 11,000  Level Boston Center

Login

Don't have an account? Register now (free) for customized features, flight alerts, and more!